Time;durP1;ratioP1;P1;durP2;ratioP2;P2;SDS_P1;SDS_P2;PMS_P1;PMS_P2;Temp;Humidity;BMP_temperature;BMP_pressure;BME280_temperature;BME280_humidity;BME280_pressure;Samples;Min_cycle;Max_cycle;Signal;HPM_P1;HPM_P2
2021/12/22 00:00:52;;;;;;;;;;;-1.00;99.90;;;;;;4894987;29;19967;-85
2021/12/22 00:03:18;;;;;;;;;;;-0.80;99.90;;;;;;4895788;29;20021;-84
2021/12/22 00:05:46;;;;;;;;;;;0.50;99.90;;;;;;4863162;29;19950;-85
2021/12/22 00:08:13;;;;;;;;;;;0.60;99.90;;;;;;4894034;29;20395;-85
2021/12/22 00:10:40;;;;;;;;;;;-0.70;99.90;;;;;;4876361;29;19931;-85
2021/12/22 00:13:06;;;;;;;;;;;2.70;99.90;;;;;;4859632;29;20009;-85
2021/12/22 00:15:32;;;;;;;;;;;0.60;99.90;;;;;;4878738;29;19931;-85
2021/12/22 00:17:58;;;;;;;;;;;-1.10;99.90;;;;;;4875574;29;19934;-84
2021/12/22 00:20:23;;;;;;;;;;;-1.50;99.90;;;;;;4876544;29;19935;-85
2021/12/22 00:22:49;;;;;;;;;;;-0.40;99.90;;;;;;4877578;29;20393;-84
2021/12/22 00:25:15;;;;;;;;;;;-0.20;99.90;;;;;;4877933;29;20008;-85
2021/12/22 00:27:42;;;;;;;;;;;1.60;99.90;;;;;;4877360;29;19959;-84
2021/12/22 00:30:08;;;;;;;;;;;-0.70;99.90;;;;;;4877849;29;20066;-84
2021/12/22 00:32:36;;;;;;;;;;;-0.60;99.90;;;;;;4878999;29;20011;-84
2021/12/22 00:35:02;;;;;;;;;;;-1.20;99.90;;;;;;4879080;29;19927;-84
2021/12/22 00:37:29;;;;;;;;;;;-1.30;99.90;;;;;;4894569;29;20349;-84
2021/12/22 00:39:56;;;;;;;;;;;-1.30;99.90;;;;;;4869537;29;19984;-84
2021/12/22 00:42:24;;;;;;;;;;;-1.50;99.90;;;;;;4870199;29;19928;-85
2021/12/22 00:44:51;;;;;;;;;;;-1.20;99.90;;;;;;4879412;29;19939;-84
2021/12/22 00:47:17;;;;;;;;;;;2.00;99.90;;;;;;4862778;29;20121;-84
2021/12/22 00:49:43;;;;;;;;;;;0.20;99.90;;;;;;4878320;29;20018;-85
2021/12/22 00:52:08;;;;;;;;;;;0.10;99.90;;;;;;4894469;29;19935;-85
2021/12/22 00:54:35;;;;;;;;;;;-1.70;99.90;;;;;;4895068;29;19983;-85
2021/12/22 00:57:05;;;;;;;;;;;-3.60;99.90;;;;;;4880733;29;19937;-85
2021/12/22 00:59:32;;;;;;;;;;;-1.50;99.90;;;;;;4898746;29;19927;-84
2021/12/22 01:01:58;;;;;;;;;;;-1.60;99.90;;;;;;4881626;29;19934;-84
2021/12/22 01:04:23;;;;;;;;;;;-1.60;99.90;;;;;;4866331;29;19927;-85
2021/12/22 01:06:49;;;;;;;;;;;-1.60;99.90;;;;;;4880264;29;20041;-84
2021/12/22 01:09:15;;;;;;;;;;;-1.30;99.90;;;;;;4892688;29;20361;-85
2021/12/22 01:11:40;;;;;;;;;;;-1.50;99.90;;;;;;4893199;29;20348;-86
2021/12/22 01:14:06;;;;;;;;;;;2.30;99.90;;;;;;4898633;29;20396;-84
2021/12/22 01:16:32;;;;;;;;;;;-0.10;99.90;;;;;;4879525;29;19963;-85
2021/12/22 01:19:02;;;;;;;;;;;0.70;99.90;;;;;;4898410;29;20403;-85
2021/12/22 01:24:13;;;;;;;;;;;-1.40;99.90;;;;;;4894952;29;19935;-84
2021/12/22 01:26:44;;;;;;;;;;;-1.30;99.90;;;;;;4880433;29;20384;-85
2021/12/22 01:29:10;;;;;;;;;;;-1.20;99.90;;;;;;4896817;29;20304;-85
2021/12/22 01:31:35;;;;;;;;;;;-1.40;99.90;;;;;;4895637;29;19927;-85
2021/12/22 01:34:01;;;;;;;;;;;-1.20;99.90;;;;;;4898618;29;20010;-85
2021/12/22 01:36:26;;;;;;;;;;;-1.50;99.90;;;;;;4894736;29;19995;-85
2021/12/22 01:38:52;;;;;;;;;;;-1.60;99.90;;;;;;4881875;29;19927;-85
2021/12/22 01:41:18;;;;;;;;;;;-2.00;99.90;;;;;;4897319;29;19923;-84
2021/12/22 01:43:43;;;;;;;;;;;0.60;99.90;;;;;;4898969;29;19924;-84
2021/12/22 01:49:10;;;;;;;;;;;-1.50;99.90;;;;;;4881987;29;19928;-85
2021/12/22 01:51:49;;;;;;;;;;;-1.70;99.90;;;;;;4880418;29;19927;-85
2021/12/22 01:54:24;;;;;;;;;;;-1.70;99.90;;;;;;4898195;29;20304;-85
2021/12/22 01:56:51;;;;;;;;;;;-1.60;99.90;;;;;;4897612;29;19932;-85
2021/12/22 01:59:17;;;;;;;;;;;1.50;99.90;;;;;;4897994;29;19935;-85
2021/12/22 02:01:43;;;;;;;;;;;-1.90;99.90;;;;;;4897896;29;20296;-85
2021/12/22 02:04:11;;;;;;;;;;;-1.80;99.90;;;;;;4898636;29;19935;-85
2021/12/22 02:06:40;;;;;;;;;;;0.40;99.90;;;;;;4880488;29;19927;-85
2021/12/22 02:09:06;;;;;;;;;;;-1.80;99.90;;;;;;4880909;29;20079;-85
2021/12/22 02:11:32;;;;;;;;;;;0.50;99.90;;;;;;4880758;29;19928;-85
2021/12/22 02:14:03;;;;;;;;;;;-1.90;99.90;;;;;;4898355;29;19934;-84
2021/12/22 02:16:32;;;;;;;;;;;-1.70;99.90;;;;;;4897529;29;20031;-84
2021/12/22 02:18:59;;;;;;;;;;;1.30;99.90;;;;;;4880934;29;20014;-84
2021/12/22 02:21:28;;;;;;;;;;;-1.40;99.90;;;;;;4896104;29;19928;-84
2021/12/22 02:23:53;;;;;;;;;;;-1.60;99.90;;;;;;4897630;29;19932;-84
2021/12/22 02:26:25;;;;;;;;;;;-1.60;99.90;;;;;;4896250;29;19937;-84
2021/12/22 02:28:59;;;;;;;;;;;-2.20;99.90;;;;;;4896786;29;19934;-84
2021/12/22 02:31:25;;;;;;;;;;;-1.30;99.90;;;;;;4896134;29;19986;-84
2021/12/22 02:33:51;;;;;;;;;;;1.30;99.90;;;;;;4897472;29;19927;-84
2021/12/22 02:38:45;;;;;;;;;;;-1.40;99.90;;;;;;4890516;29;19928;-83
2021/12/22 02:41:13;;;;;;;;;;;-1.40;99.90;;;;;;4874863;29;19931;-83
2021/12/22 02:43:48;;;;;;;;;;;1.90;99.90;;;;;;4860743;29;19947;-83
2021/12/22 02:46:15;;;;;;;;;;;-1.40;99.90;;;;;;4878366;29;20365;-83
2021/12/22 02:48:41;;;;;;;;;;;0.50;99.90;;;;;;4895861;29;19935;-84
2021/12/22 02:51:07;;;;;;;;;;;-1.30;99.90;;;;;;4880001;29;20280;-84
2021/12/22 02:53:47;;;;;;;;;;;-0.20;99.90;;;;;;4897872;29;20356;-84
2021/12/22 03:04:10;;;;;;;;;;;-1.60;99.90;;;;;;4894297;29;20360;-84
2021/12/22 03:06:52;;;;;;;;;;;1.40;99.90;;;;;;4894566;29;19928;-84
2021/12/22 03:09:22;;;;;;;;;;;-1.40;99.90;;;;;;4897604;29;19927;-83
2021/12/22 03:11:48;;;;;;;;;;;-1.70;99.90;;;;;;4896404;29;20337;-84
2021/12/22 03:14:14;;;;;;;;;;;1.50;99.90;;;;;;4897244;29;19927;-85
2021/12/22 03:16:42;;;;;;;;;;;-1.80;99.90;;;;;;4895861;29;20331;-84
2021/12/22 03:19:09;;;;;;;;;;;-1.60;99.90;;;;;;4895720;29;19967;-84
2021/12/22 03:21:34;;;;;;;;;;;-1.70;99.90;;;;;;4879055;29;19931;-84
2021/12/22 03:24:00;;;;;;;;;;;-1.70;99.90;;;;;;4896746;29;19937;-84
2021/12/22 03:26:26;;;;;;;;;;;-1.80;99.90;;;;;;4895830;29;19927;-85
2021/12/22 03:28:51;;;;;;;;;;;1.30;99.90;;;;;;4896634;29;19936;-84
2021/12/22 03:31:17;;;;;;;;;;;-1.60;99.90;;;;;;4879586;29;20269;-84
2021/12/22 03:33:43;;;;;;;;;;;-1.90;99.90;;;;;;4896295;29;19931;-84
2021/12/22 03:36:09;;;;;;;;;;;-0.40;99.90;;;;;;4895528;29;19928;-84
2021/12/22 03:38:36;;;;;;;;;;;-1.70;99.90;;;;;;4879510;29;19934;-85
2021/12/22 03:41:03;;;;;;;;;;;-1.70;99.90;;;;;;4896012;29;19935;-84
2021/12/22 03:43:28;;;;;;;;;;;-1.10;99.90;;;;;;4896038;29;20407;-85
2021/12/22 03:45:54;;;;;;;;;;;1.60;99.90;;;;;;4895495;29;19927;-84
2021/12/22 03:48:21;;;;;;;;;;;0.90;99.90;;;;;;4863043;29;19931;-84
2021/12/22 03:50:47;;;;;;;;;;;-1.60;99.90;;;;;;4877975;29;19928;-85
2021/12/22 03:53:12;;;;;;;;;;;-1.60;99.90;;;;;;4879663;29;19927;-85
2021/12/22 03:55:38;;;;;;;;;;;-1.60;99.90;;;;;;4896414;29;20325;-85
2021/12/22 03:58:04;;;;;;;;;;;-0.40;99.90;;;;;;4894591;29;19927;-85
2021/12/22 04:00:30;;;;;;;;;;;-0.90;99.90;;;;;;4896093;29;19939;-85
2021/12/22 04:02:56;;;;;;;;;;;1.20;99.90;;;;;;4896386;29;20007;-85
2021/12/22 04:05:22;;;;;;;;;;;0.40;99.90;;;;;;4893646;29;20002;-84
2021/12/22 04:07:47;;;;;;;;;;;0.70;99.90;;;;;;4895092;29;19927;-84
2021/12/22 04:10:21;;;;;;;;;;;1.00;99.90;;;;;;4891971;29;19928;-84
2021/12/22 04:12:48;;;;;;;;;;;-1.90;99.90;;;;;;4894659;29;20396;-84
2021/12/22 04:15:14;;;;;;;;;;;1.30;99.90;;;;;;4895562;29;20003;-84
2021/12/22 04:17:39;;;;;;;;;;;-1.60;99.90;;;;;;4893877;29;20460;-84
2021/12/22 04:20:05;;;;;;;;;;;0.80;99.90;;;;;;4895359;29;19934;-84
2021/12/22 04:22:31;;;;;;;;;;;-1.50;99.90;;;;;;4894249;29;19935;-83
2021/12/22 04:24:56;;;;;;;;;;;0.20;99.90;;;;;;4891740;29;19931;-84
2021/12/22 04:27:22;;;;;;;;;;;-1.30;99.90;;;;;;4890484;29;19928;-84
2021/12/22 04:29:47;;;;;;;;;;;-0.70;99.90;;;;;;4895687;29;19935;-84
2021/12/22 04:32:13;;;;;;;;;;;-1.60;99.90;;;;;;4898497;29;20011;-84
2021/12/22 04:34:39;;;;;;;;;;;-1.70;99.90;;;;;;4882357;29;20392;-85
2021/12/22 04:37:04;;;;;;;;;;;-1.70;99.90;;;;;;4881834;29;20327;-83
2021/12/22 04:39:32;;;;;;;;;;;-1.90;99.90;;;;;;4899230;29;19942;-84
2021/12/22 04:41:58;;;;;;;;;;;-1.90;99.90;;;;;;4880024;29;19947;-84
2021/12/22 04:44:24;;;;;;;;;;;-1.80;99.90;;;;;;4883165;29;19979;-84
2021/12/22 04:46:49;;;;;;;;;;;0.40;99.90;;;;;;4898706;29;19979;-84
2021/12/22 04:49:15;;;;;;;;;;;0.80;99.90;;;;;;4899944;29;19928;-84
2021/12/22 04:51:48;;;;;;;;;;;-1.80;99.90;;;;;;4897986;29;19963;-84
2021/12/22 04:54:29;;;;;;;;;;;0.60;99.90;;;;;;4899951;29;20222;-84
2021/12/22 04:56:56;;;;;;;;;;;-1.10;99.90;;;;;;4867721;29;20014;-84
2021/12/22 04:59:21;;;;;;;;;;;-2.10;99.90;;;;;;4882085;29;19939;-84
2021/12/22 05:01:47;;;;;;;;;;;-2.00;99.90;;;;;;4895173;29;20030;-84
2021/12/22 05:04:13;;;;;;;;;;;-1.90;99.90;;;;;;4864744;29;20421;-83
2021/12/22 05:06:38;;;;;;;;;;;-2.00;99.90;;;;;;4876260;29;19927;-84
2021/12/22 05:09:04;;;;;;;;;;;-0.10;99.90;;;;;;4888033;29;19932;-84
2021/12/22 05:11:30;;;;;;;;;;;-2.10;99.90;;;;;;4887297;29;19938;-82
2021/12/22 05:13:56;;;;;;;;;;;-2.30;99.90;;;;;;4898358;29;19927;-83
2021/12/22 05:16:21;;;;;;;;;;;-2.10;99.90;;;;;;4898421;29;20376;-83
2021/12/22 05:18:54;;;;;;;;;;;1.10;99.90;;;;;;4880801;29;20246;-84
2021/12/22 05:21:21;;;;;;;;;;;-2.30;99.90;;;;;;4898434;29;19939;-84
2021/12/22 05:23:53;;;;;;;;;;;-1.20;99.90;;;;;;4898517;29;19927;-84
2021/12/22 05:26:19;;;;;;;;;;;-2.10;99.90;;;;;;4889744;29;20325;-84
2021/12/22 05:28:45;;;;;;;;;;;0.30;99.90;;;;;;4898086;29;20004;-84
2021/12/22 05:31:11;;;;;;;;;;;0.30;99.90;;;;;;4895252;29;20007;-84
2021/12/22 05:33:37;;;;;;;;;;;-2.10;99.90;;;;;;4882860;29;20368;-83
2021/12/22 05:36:03;;;;;;;;;;;-2.10;99.90;;;;;;4880593;29;20015;-83
2021/12/22 05:38:29;;;;;;;;;;;-2.00;99.90;;;;;;4881543;29;20413;-83
2021/12/22 05:40:54;;;;;;;;;;;-2.20;99.90;;;;;;4897066;29;19985;-83
2021/12/22 05:43:20;;;;;;;;;;;-2.00;99.90;;;;;;4898431;29;19927;-83
2021/12/22 05:45:45;;;;;;;;;;;-1.50;99.90;;;;;;4865805;29;20022;-84
2021/12/22 05:48:11;;;;;;;;;;;-2.20;99.90;;;;;;4898401;29;20022;-83
2021/12/22 05:50:36;;;;;;;;;;;-2.20;99.90;;;;;;4898158;29;19927;-84
2021/12/22 05:53:03;;;;;;;;;;;-2.20;99.90;;;;;;4879066;29;19974;-84
2021/12/22 05:55:28;;;;;;;;;;;0.50;99.90;;;;;;4881499;29;19980;-84
2021/12/22 05:57:54;;;;;;;;;;;-2.00;99.90;;;;;;4896443;29;19927;-84
2021/12/22 06:00:22;;;;;;;;;;;-2.20;99.90;;;;;;4895431;29;20018;-84
2021/12/22 06:02:47;;;;;;;;;;;-2.10;99.90;;;;;;4880502;29;20377;-84
2021/12/22 06:05:14;;;;;;;;;;;-2.50;99.90;;;;;;4897332;29;19934;-84
2021/12/22 06:07:39;;;;;;;;;;;0.80;99.90;;;;;;4873476;29;19935;-84
2021/12/22 06:10:05;;;;;;;;;;;-2.20;99.90;;;;;;4868830;29;20175;-83
2021/12/22 06:12:31;;;;;;;;;;;-2.20;99.90;;;;;;4881174;29;20231;-83
2021/12/22 06:14:56;;;;;;;;;;;-2.10;99.90;;;;;;4862047;29;19950;-83
2021/12/22 06:17:22;;;;;;;;;;;-0.20;99.90;;;;;;4890883;29;19936;-84
2021/12/22 06:19:48;;;;;;;;;;;-2.30;99.90;;;;;;4881433;29;20324;-84
2021/12/22 06:22:13;;;;;;;;;;;-2.30;99.90;;;;;;4880360;29;19934;-83
2021/12/22 06:24:39;;;;;;;;;;;0.60;99.90;;;;;;4875720;29;20281;-84
2021/12/22 06:27:04;;;;;;;;;;;-2.20;99.90;;;;;;4895992;29;20038;-85
2021/12/22 06:29:30;;;;;;;;;;;-1.50;99.90;;;;;;4881096;29;20003;-85
2021/12/22 06:31:55;;;;;;;;;;;0.00;99.90;;;;;;4885443;29;19935;-84
2021/12/22 06:34:24;;;;;;;;;;;-2.30;99.90;;;;;;4894458;29;19934;-84
2021/12/22 06:36:50;;;;;;;;;;;-1.90;99.90;;;;;;4895763;29;19938;-84
2021/12/22 06:39:16;;;;;;;;;;;-2.60;99.90;;;;;;4897418;29;20381;-84
2021/12/22 06:41:41;;;;;;;;;;;-2.40;99.90;;;;;;4894033;29;19974;-83
2021/12/22 06:44:07;;;;;;;;;;;-1.50;99.90;;;;;;4876908;29;19938;-83
2021/12/22 06:46:33;;;;;;;;;;;-2.40;99.90;;;;;;4896097;29;19927;-84
2021/12/22 06:48:58;;;;;;;;;;;0.40;99.90;;;;;;4896386;29;19928;-84
2021/12/22 06:51:24;;;;;;;;;;;-1.50;99.90;;;;;;4895324;29;19928;-84
2021/12/22 06:53:49;;;;;;;;;;;-2.30;99.90;;;;;;4896071;29;20290;-83
2021/12/22 06:56:15;;;;;;;;;;;-2.10;99.90;;;;;;4893708;29;19935;-84
2021/12/22 06:58:41;;;;;;;;;;;-2.90;99.90;;;;;;4864394;29;19938;-83
2021/12/22 07:01:07;;;;;;;;;;;-2.40;99.90;;;;;;4896514;29;20368;-83
2021/12/22 07:03:32;;;;;;;;;;;-1.70;99.90;;;;;;4880777;29;20018;-84
2021/12/22 07:05:58;;;;;;;;;;;-2.30;99.90;;;;;;4895031;29;19932;-84
2021/12/22 07:08:23;;;;;;;;;;;-2.50;99.90;;;;;;4880884;29;19935;-84
2021/12/22 07:10:49;;;;;;;;;;;-2.50;99.90;;;;;;4895760;29;19942;-83
2021/12/22 07:13:15;;;;;;;;;;;-2.50;99.90;;;;;;4880681;29;20075;-84
2021/12/22 07:15:43;;;;;;;;;;;0.80;99.90;;;;;;4896268;29;19949;-84
2021/12/22 07:18:10;;;;;;;;;;;-2.40;99.90;;;;;;4877312;29;20006;-83
2021/12/22 07:20:36;;;;;;;;;;;0.50;99.90;;;;;;4893790;29;20287;-84
2021/12/22 07:23:02;;;;;;;;;;;-2.40;99.90;;;;;;4857938;29;19923;-83
2021/12/22 07:25:27;;;;;;;;;;;-2.10;99.90;;;;;;4879943;29;19928;-80
2021/12/22 07:27:53;;;;;;;;;;;-2.30;99.90;;;;;;4875475;29;19934;-84
2021/12/22 07:30:19;;;;;;;;;;;-2.40;99.90;;;;;;4874622;29;19932;-85
2021/12/22 07:32:45;;;;;;;;;;;-2.40;99.90;;;;;;4870737;29;19974;-84
2021/12/22 07:35:11;;;;;;;;;;;-2.40;99.90;;;;;;4895815;29;19931;-84
2021/12/22 07:37:39;;;;;;;;;;;-2.40;99.90;;;;;;4879179;29;19934;-84
2021/12/22 07:40:06;;;;;;;;;;;-3.60;99.90;;;;;;4862810;29;20385;-84
2021/12/22 07:42:31;;;;;;;;;;;-2.30;99.90;;;;;;4877455;29;20348;-85
2021/12/22 07:44:57;;;;;;;;;;;0.40;99.90;;;;;;4880056;29;19931;-84
2021/12/22 07:47:22;;;;;;;;;;;1.10;99.90;;;;;;4896991;29;19927;-84
2021/12/22 07:49:51;;;;;;;;;;;-2.10;99.90;;;;;;4863330;29;19928;-84
2021/12/22 07:52:16;;;;;;;;;;;-2.40;99.90;;;;;;4891188;29;20038;-84
2021/12/22 07:54:42;;;;;;;;;;;-2.40;99.90;;;;;;4896439;29;20018;-85
2021/12/22 07:57:07;;;;;;;;;;;-0.50;99.90;;;;;;4895782;29;19946;-85
2021/12/22 07:59:33;;;;;;;;;;;-2.60;99.90;;;;;;4895932;29;19955;-83
2021/12/22 08:01:59;;;;;;;;;;;-2.30;99.90;;;;;;4877988;29;19931;-84
2021/12/22 08:04:26;;;;;;;;;;;-2.20;99.90;;;;;;4880207;29;19932;-84
2021/12/22 08:06:51;;;;;;;;;;;-2.10;99.90;;;;;;4879188;29;19988;-84
2021/12/22 08:09:17;;;;;;;;;;;-2.40;99.90;;;;;;4878664;29;20231;-84
2021/12/22 08:11:43;;;;;;;;;;;-2.10;99.90;;;;;;4888301;29;19966;-84
2021/12/22 08:14:09;;;;;;;;;;;-2.30;99.90;;;;;;4896095;29;19927;-84
2021/12/22 08:16:34;;;;;;;;;;;-2.10;99.90;;;;;;4896188;29;19927;-84
2021/12/22 08:19:00;;;;;;;;;;;1.10;99.90;;;;;;4879209;29;19988;-84
2021/12/22 08:21:26;;;;;;;;;;;-1.90;99.90;;;;;;4862766;29;19934;-85
2021/12/22 08:23:51;;;;;;;;;;;-2.10;99.90;;;;;;4896829;29;19932;-84
2021/12/22 08:26:17;;;;;;;;;;;0.90;99.90;;;;;;4895810;29;20160;-84
2021/12/22 08:28:46;;;;;;;;;;;-2.00;99.90;;;;;;4879709;29;19931;-84
2021/12/22 08:31:15;;;;;;;;;;;-1.90;99.90;;;;;;4891248;29;20448;-84
2021/12/22 08:33:45;;;;;;;;;;;1.30;99.90;;;;;;4879895;29;19927;-86
2021/12/22 08:38:58;;;;;;;;;;;0.90;99.90;;;;;;4895221;29;19935;-85
2021/12/22 08:41:29;;;;;;;;;;;-1.80;99.90;;;;;;4877028;29;20019;-85
2021/12/22 08:43:55;;;;;;;;;;;-1.80;99.90;;;;;;4879963;29;19930;-85
2021/12/22 08:46:21;;;;;;;;;;;1.40;99.90;;;;;;4859488;29;19963;-85
2021/12/22 08:48:46;;;;;;;;;;;-2.00;99.90;;;;;;4878728;29;20001;-85
2021/12/22 08:51:12;;;;;;;;;;;-2.30;99.90;;;;;;4875307;29;19955;-85
2021/12/22 08:53:38;;;;;;;;;;;-1.80;67.40;;;;;;4869862;29;19934;-84
2021/12/22 08:56:04;;;;;;;;;;;-1.00;99.90;;;;;;4878393;29;20015;-85
2021/12/22 08:58:29;;;;;;;;;;;-1.50;99.90;;;;;;4891421;29;19932;-84
2021/12/22 09:00:55;;;;;;;;;;;-1.70;1.00;;;;;;4883910;29;20497;-85
2021/12/22 09:03:20;;;;;;;;;;;-1.60;99.90;;;;;;4877838;29;19936;-85
2021/12/22 09:05:46;;;;;;;;;;;-1.50;1.00;;;;;;4876967;29;19934;-85
2021/12/22 09:08:12;;;;;;;;;;;-1.30;96.90;;;;;;4878287;29;20317;-84
2021/12/22 09:10:37;;;;;;;;;;;-1.70;99.90;;;;;;4878886;29;19974;-85
2021/12/22 09:13:03;;;;;;;;;;;-1.50;1.00;;;;;;4895260;29;19927;-85
2021/12/22 09:15:29;;;;;;;;;;;-1.90;44.80;;;;;;4878271;29;19928;-85
2021/12/22 09:17:55;;;;;;;;;;;-1.40;99.90;;;;;;4896419;29;20396;-85
2021/12/22 09:20:21;;;;;;;;;;;-1.40;1.00;;;;;;4882059;29;19927;-85
2021/12/22 09:22:46;;;;;;;;;;;-1.40;99.90;;;;;;4898495;29;19932;-85
2021/12/22 09:25:12;;;;;;;;;;;-1.20;1.00;;;;;;4881851;29;19936;-85
2021/12/22 09:27:39;;;;;;;;;;;-1.50;99.90;;;;;;4898283;29;19936;-85
2021/12/22 09:30:05;;;;;;;;;;;-1.00;1.00;;;;;;4894263;29;19928;-84
2021/12/22 09:32:30;;;;;;;;;;;-0.60;1.00;;;;;;4893143;29;19947;-84
2021/12/22 09:34:56;;;;;;;;;;;-1.40;99.90;;;;;;4862901;29;20004;-84
2021/12/22 09:37:22;;;;;;;;;;;-1.40;99.90;;;;;;4887410;29;19975;-84
2021/12/22 09:39:49;;;;;;;;;;;-1.30;99.90;;;;;;4898419;29;19931;-84
2021/12/22 09:42:15;;;;;;;;;;;-1.20;99.90;;;;;;4863588;29;20088;-84
2021/12/22 09:44:45;;;;;;;;;;;-1.20;99.90;;;;;;4895767;29;20014;-83
2021/12/22 09:47:12;;;;;;;;;;;1.50;99.90;;;;;;4887445;29;19975;-83
2021/12/22 09:52:26;;;;;;;;;;;2.10;99.90;;;;;;4899701;29;19935;-83
2021/12/22 09:54:54;;;;;;;;;;;-0.90;99.90;;;;;;4899038;29;19928;-83
2021/12/22 09:57:20;;;;;;;;;;;-0.80;1.00;;;;;;4899166;29;20059;-83
2021/12/22 09:59:50;;;;;;;;;;;0.50;99.90;;;;;;4866327;29;20026;-83
2021/12/22 10:02:17;;;;;;;;;;;-0.80;1.00;;;;;;4898972;29;19935;-82
2021/12/22 10:04:42;;;;;;;;;;;-0.90;1.00;;;;;;4882274;29;20284;-83
2021/12/22 10:07:10;;;;;;;;;;;-0.60;1.00;;;;;;4897177;29;19928;-84
2021/12/22 10:09:47;;;;;;;;;;;1.80;1.00;;;;;;4878508;29;19928;-82
2021/12/22 10:12:17;;;;;;;;;;;-0.90;1.00;;;;;;4897565;29;20363;-84
2021/12/22 10:14:58;;;;;;;;;;;-0.80;99.90;;;;;;4898554;29;19935;-84
2021/12/22 10:17:53;;;;;;;;;;;-0.80;1.00;;;;;;4908959;29;19927;-82
2021/12/22 10:20:20;;;;;;;;;;;-0.70;99.90;;;;;;4878288;29;20430;-82
2021/12/22 10:22:48;;;;;;;;;;;-0.60;99.90;;;;;;4880374;29;19950;-82
2021/12/22 10:25:16;;;;;;;;;;;-0.50;99.90;;;;;;4897575;29;20037;-82
2021/12/22 10:27:43;;;;;;;;;;;0.50;99.90;;;;;;4897979;29;19938;-83
2021/12/22 10:30:19;;;;;;;;;;;-0.30;99.90;;;;;;4897605;29;20388;-82
2021/12/22 10:32:45;;;;;;;;;;;-0.60;99.90;;;;;;4897830;29;19927;-83
2021/12/22 10:35:11;;;;;;;;;;;1.90;99.90;;;;;;4895430;29;20029;-82
2021/12/22 10:37:38;;;;;;;;;;;-0.90;99.90;;;;;;4879661;29;19950;-82
2021/12/22 10:40:23;;;;;;;;;;;-0.70;99.90;;;;;;4897807;29;19928;-83
2021/12/22 10:42:49;;;;;;;;;;;-0.60;99.90;;;;;;4897974;29;20065;-83
2021/12/22 10:45:18;;;;;;;;;;;2.00;99.90;;;;;;4897310;29;19927;-84
2021/12/22 10:50:32;;;;;;;;;;;-0.50;99.90;;;;;;4877822;29;20398;-83
2021/12/22 10:52:57;;;;;;;;;;;-0.50;78.30;;;;;;4878384;29;19978;-84
2021/12/22 10:55:23;;;;;;;;;;;0.70;92.00;;;;;;4880393;29;19941;-84
2021/12/22 10:57:49;;;;;;;;;;;0.20;70.00;;;;;;4880208;29;19939;-84
2021/12/22 11:00:21;;;;;;;;;;;2.20;89.90;;;;;;4896035;29;19935;-84
2021/12/22 11:03:06;;;;;;;;;;;-0.50;48.30;;;;;;4896712;29;19928;-83
2021/12/22 11:05:45;;;;;;;;;;;-0.30;96.90;;;;;;4880346;29;20341;-84
2021/12/22 11:08:18;;;;;;;;;;;-0.30;95.80;;;;;;4896816;29;19993;-85
2021/12/22 11:10:43;;;;;;;;;;;-0.30;66.80;;;;;;4864371;29;19967;-84
2021/12/22 11:13:09;;;;;;;;;;;-0.20;20.70;;;;;;4896815;29;19931;-85
2021/12/22 11:15:42;;;;;;;;;;;-0.20;63.10;;;;;;4879965;29;19931;-85
2021/12/22 11:18:28;;;;;;;;;;;-0.20;54.30;;;;;;4896586;29;19927;-85
2021/12/22 11:21:09;;;;;;;;;;;2.70;71.80;;;;;;4894792;29;20251;-85
2021/12/22 11:23:39;;;;;;;;;;;0.40;78.00;;;;;;4880098;29;20317;-86
2021/12/22 11:26:05;;;;;;;;;;;1.20;89.20;;;;;;4897155;29;19939;-85
2021/12/22 11:28:33;;;;;;;;;;;0.00;46.30;;;;;;4896609;29;19938;-86
2021/12/22 11:30:59;;;;;;;;;;;0.00;1.00;;;;;;4864661;29;19931;-86
2021/12/22 11:33:27;;;;;;;;;;;0.00;1.00;;;;;;4879357;29;19927;-86
2021/12/22 11:35:55;;;;;;;;;;;0.50;1.00;;;;;;4877228;29;19938;-85
2021/12/22 11:38:20;;;;;;;;;;;2.20;1.00;;;;;;4882245;29;19927;-86
2021/12/22 11:40:55;;;;;;;;;;;0.00;4.70;;;;;;4896368;29;20071;-84
2021/12/22 11:43:22;;;;;;;;;;;1.80;20.70;;;;;;4864600;29;19931;-85
2021/12/22 11:45:48;;;;;;;;;;;0.10;1.00;;;;;;4896875;29;20023;-84
2021/12/22 11:48:15;;;;;;;;;;;-0.30;1.00;;;;;;4890018;29;19928;-86
2021/12/22 11:50:44;;;;;;;;;;;2.30;14.60;;;;;;4896031;29;20271;-85
2021/12/22 11:53:10;;;;;;;;;;;-0.10;29.10;;;;;;4896583;29;19932;-85
2021/12/22 11:55:40;;;;;;;;;;;-0.40;32.60;;;;;;4864290;29;19928;-86
2021/12/22 11:58:16;;;;;;;;;;;0.50;1.00;;;;;;4896613;29;20015;-85
2021/12/22 12:00:45;;;;;;;;;;;0.20;4.30;;;;;;4895880;29;20221;-86
2021/12/22 12:03:30;;;;;;;;;;;0.10;1.00;;;;;;4880264;29;19934;-85
2021/12/22 12:06:16;;;;;;;;;;;-0.20;10.00;;;;;;4879170;29;20325;-86
2021/12/22 12:08:47;;;;;;;;;;;0.00;20.00;;;;;;4894823;29;19934;-86
2021/12/22 12:11:16;;;;;;;;;;;-2.10;1.00;;;;;;4879883;29;19927;-86
2021/12/22 12:14:03;;;;;;;;;;;2.60;1.00;;;;;;4864304;29;19939;-86
2021/12/22 12:22:22;;;;;;;;;;;0.80;1.00;;;;;;4860850;29;20051;-86
2021/12/22 12:24:48;;;;;;;;;;;2.80;1.00;;;;;;4860867;29;19927;-86
2021/12/22 12:27:32;;;;;;;;;;;0.10;1.00;;;;;;4877803;29;20333;-86
2021/12/22 12:30:04;;;;;;;;;;;-0.10;1.00;;;;;;4866203;29;19928;-86
2021/12/22 12:32:38;;;;;;;;;;;0.00;6.70;;;;;;4877501;29;19938;-87
2021/12/22 12:35:19;;;;;;;;;;;0.00;1.00;;;;;;4859325;29;20002;-86
2021/12/22 12:38:04;;;;;;;;;;;0.10;1.00;;;;;;4860039;29;19982;-85
2021/12/22 12:40:48;;;;;;;;;;;-0.10;1.00;;;;;;4854801;29;19927;-85
2021/12/22 12:43:14;;;;;;;;;;;-0.10;1.00;;;;;;4860913;29;20318;-86
2021/12/22 12:45:41;;;;;;;;;;;0.00;1.00;;;;;;4860935;29;19951;-86
2021/12/22 12:48:27;;;;;;;;;;;1.80;1.00;;;;;;4861078;29;19971;-85
2021/12/22 12:51:13;;;;;;;;;;;-1.60;1.00;;;;;;4871932;29;20131;-86
2021/12/22 12:53:40;;;;;;;;;;;0.40;1.00;;;;;;4899299;29;20041;-86
2021/12/22 12:56:09;;;;;;;;;;;0.00;1.00;;;;;;4899178;29;19966;-86
2021/12/22 12:58:50;;;;;;;;;;;2.00;1.00;;;;;;4877084;29;19999;-86
2021/12/22 13:01:15;;;;;;;;;;;0.50;1.00;;;;;;4893649;29;20300;-86
2021/12/22 13:03:48;;;;;;;;;;;-0.10;1.00;;;;;;4882899;29;19928;-87
2021/12/22 13:06:14;;;;;;;;;;;-0.10;1.00;;;;;;4899219;29;19935;-87
2021/12/22 13:08:40;;;;;;;;;;;1.50;1.00;;;;;;4882215;29;19939;-87
2021/12/22 13:11:12;;;;;;;;;;;0.00;1.00;;;;;;4899058;29;19959;-87
2021/12/22 13:15:45;;;;;;;;;;;0.20;1.00;;;;;;4898723;29;20329;-87
2021/12/22 13:16:24;;;;;;;;;;;-0.30;1.00;;;;;;4882518;29;19938;-86
2021/12/22 13:18:49;;;;;;;;;;;2.80;1.00;;;;;;4882296;29;19931;-86
2021/12/22 13:21:15;;;;;;;;;;;0.30;1.00;;;;;;4881126;29;20341;-85
2021/12/22 13:23:40;;;;;;;;;;;3.00;3.10;;;;;;4866831;29;19927;-86
2021/12/22 13:26:06;;;;;;;;;;;-0.10;9.90;;;;;;4882222;29;19927;-86
2021/12/22 13:28:35;;;;;;;;;;;-0.10;1.00;;;;;;4882754;29;19982;-85
2021/12/22 13:31:02;;;;;;;;;;;-0.20;12.40;;;;;;4867823;29;20031;-86
2021/12/22 13:33:32;;;;;;;;;;;1.80;34.10;;;;;;4880777;29;19928;-85
2021/12/22 13:35:59;;;;;;;;;;;-1.30;20.30;;;;;;4862357;29;19998;-86
2021/12/22 13:38:25;;;;;;;;;;;-0.30;29.20;;;;;;4863762;29;19938;-85
2021/12/22 13:40:55;;;;;;;;;;;0.00;26.90;;;;;;4860303;29;20006;-85
2021/12/22 13:43:21;;;;;;;;;;;-0.20;1.00;;;;;;4899391;29;20384;-85
2021/12/22 13:45:47;;;;;;;;;;;0.10;24.20;;;;;;4882405;29;19927;-86
2021/12/22 13:48:22;;;;;;;;;;;-0.10;1.00;;;;;;4880660;29;19939;-86
2021/12/22 13:50:48;;;;;;;;;;;0.50;1.00;;;;;;4857602;29;19927;-85
2021/12/22 13:53:15;;;;;;;;;;;0.00;1.00;;;;;;4900095;29;19990;-85
2021/12/22 13:55:40;;;;;;;;;;;-0.80;1.00;;;;;;4865964;29;19928;-86
2021/12/22 13:58:25;;;;;;;;;;;0.00;1.00;;;;;;4879487;29;19927;-86
2021/12/22 14:01:08;;;;;;;;;;;0.00;1.00;;;;;;4888515;29;19927;-85
2021/12/22 14:03:33;;;;;;;;;;;2.20;1.00;;;;;;4861558;29;19928;-84
2021/12/22 14:06:09;;;;;;;;;;;-0.10;1.00;;;;;;4875781;29;20422;-86
2021/12/22 14:08:40;;;;;;;;;;;-0.10;1.00;;;;;;4866570;29;19927;-88
2021/12/22 14:11:24;;;;;;;;;;;-0.20;1.00;;;;;;4866049;29;20237;-87
2021/12/22 14:13:50;;;;;;;;;;;0.20;1.00;;;;;;4881544;29;20365;-85
2021/12/22 14:16:24;;;;;;;;;;;-0.20;1.00;;;;;;4881720;29;19934;-85
2021/12/22 14:18:51;;;;;;;;;;;-0.10;1.00;;;;;;4897919;29;20416;-85
2021/12/22 14:21:21;;;;;;;;;;;-0.50;1.00;;;;;;4876123;29;19934;-86
2021/12/22 14:23:55;;;;;;;;;;;-0.20;1.00;;;;;;4897675;29;19967;-84
2021/12/22 14:26:20;;;;;;;;;;;-0.30;1.00;;;;;;4898193;29;19935;-84
2021/12/22 14:28:59;;;;;;;;;;;-0.20;1.00;;;;;;4863849;29;19927;-83
2021/12/22 14:31:24;;;;;;;;;;;-0.50;1.00;;;;;;4859149;29;19927;-84
2021/12/22 14:34:06;;;;;;;;;;;0.00;1.00;;;;;;4894007;29;19931;-84
2021/12/22 14:36:48;;;;;;;;;;;-0.40;1.00;;;;;;4864347;29;19998;-85
2021/12/22 14:39:14;;;;;;;;;;;-0.70;1.00;;;;;;4897413;29;19927;-84
2021/12/22 14:41:40;;;;;;;;;;;-0.40;1.00;;;;;;4880721;29;19932;-87
2021/12/22 14:44:20;;;;;;;;;;;-0.30;1.00;;;;;;4897238;29;19931;-84
2021/12/22 14:46:46;;;;;;;;;;;0.00;1.00;;;;;;4897529;29;19935;-83
2021/12/22 14:49:19;;;;;;;;;;;-0.30;1.00;;;;;;4898041;29;19927;-84
2021/12/22 14:51:46;;;;;;;;;;;-0.30;1.00;;;;;;4896708;29;19935;-84
2021/12/22 14:54:12;;;;;;;;;;;-0.30;1.00;;;;;;4873268;29;19935;-84
2021/12/22 14:56:43;;;;;;;;;;;-0.50;14.10;;;;;;4880847;29;19928;-84
2021/12/22 14:59:10;;;;;;;;;;;-0.30;1.00;;;;;;4876011;29;20391;-82